Othello — LXOD — position and weather

sailwx.info

Track history (hours):
 
Tides and Currents Weather Stations Pressure Air Temp Water Temp Dewpoint Dewpoint Depression Visibility Wind Speed Wind Dir Waves Ship Positions

Othello

Last reported at 2014-Nov-26 14:03 UTC. Time now 2014-Nov-26 15:11 UTC.
Position N 51°52' E 004°16'.

Length 104 m; draft 5.9 m.

Type: Ship. MMSI: 253279000.

Date/timePositionNaut miles runAvg speedWind from/ knotsBaromVisibWave heightAir tempDewpointWater temp
2014-Nov-26 14:03N 51°52' E 004°16'0 0.0
2014-Nov-26 12:33N 51°52' E 004°16'2 1.6
2014-Nov-26 11:33N 51°54' E 004°17'1211.5
2014-Nov-26 10:33N 51°60' E 004°01'9 8.5
2014-Nov-26 09:33N 51°57' E 003°47'0 0.2
2014-Nov-26 08:28N 51°57' E 003°47'0 0.0
2014-Nov-26 07:31N 51°57' E 003°47'2 2.4
2014-Nov-26 06:33N 51°58' E 003°44'1111.3
2014-Nov-26 05:33N 51°55' E 003°26'1212.0
2014-Nov-26 04:33N 51°52' E 003°07'2512.2
2014-Nov-26 02:32N 51°41' E 002°32'1212.6
2014-Nov-26 01:33N 51°32' E 002°17'1211.8
2014-Nov-26 00:33N 51°22' E 002°09'10 9.8
2014-Nov-25 23:34N 51°13' E 002°01'9 9.0
2014-Nov-25 22:33N 51°08' E 001°49'8 8.0
2014-Nov-25 21:33N 51°02' E 001°41'8 7.6
2014-Nov-25 20:33N 50°57' E 001°32'15910.4
2014-Nov-25 05:13N 49°55' W 002°18'  
Track history (hours):
 
Tides and Currents Weather Stations Pressure Air Temp Water Temp Dewpoint Dewpoint Depression Visibility Wind Speed Wind Dir Waves Ship Positions

Othello

Last reported at 2014-Nov-26 14:03 UTC. Time now 2014-Nov-26 15:11 UTC.
Position N 51°52' E 004°16'.

Length 104 m; draft 5.9 m.

Type: Ship. MMSI: 253279000.

Date/timePositionNaut miles runAvg speedWind from/ knotsBaromVisibWave heightAir tempDewpointWater temp
2014-Nov-26 14:03N 51°52' E 004°16'0 0.0
2014-Nov-26 12:33N 51°52' E 004°16'2 1.6
2014-Nov-26 11:33N 51°54' E 004°17'1211.5
2014-Nov-26 10:33N 51°60' E 004°01'9 8.5
2014-Nov-26 09:33N 51°57' E 003°47'0 0.2
2014-Nov-26 08:28N 51°57' E 003°47'0 0.0
2014-Nov-26 07:31N 51°57' E 003°47'2 2.4
2014-Nov-26 06:33N 51°58' E 003°44'1111.3
2014-Nov-26 05:33N 51°55' E 003°26'1212.0
2014-Nov-26 04:33N 51°52' E 003°07'2512.2
2014-Nov-26 02:32N 51°41' E 002°32'1212.6
2014-Nov-26 01:33N 51°32' E 002°17'1211.8
2014-Nov-26 00:33N 51°22' E 002°09'10 9.8
2014-Nov-25 23:34N 51°13' E 002°01'9 9.0
2014-Nov-25 22:33N 51°08' E 001°49'8 8.0
2014-Nov-25 21:33N 51°02' E 001°41'8 7.6
2014-Nov-25 20:33N 50°57' E 001°32'15910.4
2014-Nov-25 05:13N 49°55' W 002°18'  

Dump ship's entire track history